Impacts METAR Board INFO
IDs:

KORD - Chicago/O'Hare Intl, IL, US

Updated at: 0709 UTC 13 Dec 2017
Potential Impact None Slight Moderate High
Time12/19Z 12/20Z 12/21Z 12/22Z 12/23Z 13/00Z 13/01Z 13/02Z 13/03Z 13/04Z 13/05Z 13/06Z 13/07Z
VIS10 10 10 10 10 10 10 10 10 10 10 10 10
CIG-- -- -- -- -- -- -- 130 85 50 70 50 35
CoverFEWFEWFEWSCTSCTSCTSCTBKNOVCOVCOVCOVCOVC
FltCatVFRVFRVFRVFRVFRVFRVFRVFRVFRVFRVFRVFRVFR
WX--------------------------
WDir310300280270270260270260270260240220190
WSpd12 14 11 9 7 6 7 7 5 4 5 4 4
WGst18 -- 19 -- -- -- -- -- -- -- -- -- --
Raw hourly METARs
KORD 121851Z 31012G18KT 10SM FEW035 FEW250 M06/M14 A3004 RMK AO2 SLP183 T10611139
KORD 121951Z 30014KT 10SM FEW035 FEW250 M06/M13 A3003 RMK AO2 SLP180 T10561133
KORD 122051Z 28011G19KT 10SM FEW035 FEW250 M06/M14 A3003 RMK AO2 SLP178 T10561139 56012
KORD 122151Z 27009KT 10SM FEW035 SCT250 M07/M13 A3002 RMK AO2 SLP177 T10671133
KORD 122251Z 27007KT 10SM FEW035 SCT250 M07/M14 A3002 RMK AO2 SLP174 T10721139
KORD 122351Z 26006KT 10SM FEW035 SCT090 SCT250 M07/M14 A3001 RMK AO2 SLP174 4/001 T10721139 11056 21078 57005
KORD 130051Z 27007KT 10SM FEW060 SCT130 SCT250 M08/M13 A3001 RMK AO2 SLP173 T10781133
KORD 130151Z 26007KT 10SM FEW060 SCT075 BKN130 BKN250 M07/M13 A2999 RMK AO2 SLP168 T10721133
KORD 130251Z 27005KT 10SM SCT075 OVC085 M07/M13 A2998 RMK AO2 SLP164 T10721128 58009
KORD 130351Z 26004KT 10SM BKN050 OVC075 M06/M13 A2998 RMK AO2 SLP161 T10611128 $
KORD 130451Z 24005KT 10SM OVC070 M06/M13 A2994 RMK AO2 SLP150 T10611128 $
KORD 130551Z 22004KT 10SM OVC050 M06/M13 A2990 RMK AO2 SLP137 4/001 T10561133 11056 21078 410061083 58026 $
KORD 130651Z 19004KT 10SM OVC035 M06/M13 A2987 RMK AO2 SLP124 T10561128 $